createdAt,value
2022-07-29T00:00:42.119Z,1.10
2022-07-29T00:01:42.112Z,0.90
2022-07-29T00:02:42.230Z,1.00
2022-07-29T00:03:42.130Z,1.90
2022-07-29T00:04:42.114Z,1.10
2022-07-29T00:05:42.076Z,1.30
2022-07-29T00:06:42.073Z,1.30
2022-07-29T00:07:42.046Z,1.40
2022-07-29T00:08:42.049Z,1.20
2022-07-29T00:09:50.662Z,1.10
2022-07-29T00:10:42.017Z,1.40
2022-07-29T00:11:42.017Z,1.20
2022-07-29T00:12:41.994Z,1.20
2022-07-29T00:13:42.009Z,1.10
2022-07-29T00:14:41.994Z,1.00
2022-07-29T00:15:41.968Z,1.40
2022-07-29T00:16:42.042Z,1.50
2022-07-29T00:17:41.947Z,1.50
2022-07-29T00:18:41.944Z,1.00
2022-07-29T00:19:45.469Z,1.10
2022-07-29T00:20:41.915Z,1.70
2022-07-29T00:21:41.906Z,1.00
2022-07-29T00:22:41.906Z,1.10
2022-07-29T00:23:41.888Z,1.20
2022-07-29T00:24:41.874Z,1.20
2022-07-29T00:25:41.870Z,1.50
2022-07-29T00:26:41.860Z,1.30
2022-07-29T00:27:41.863Z,1.40
2022-07-29T00:28:41.832Z,1.20
2022-07-29T00:29:41.828Z,1.30
2022-07-29T00:30:41.811Z,1.20
2022-07-29T00:31:41.880Z,1.10
2022-07-29T00:32:41.809Z,1.00
2022-07-29T00:33:41.788Z,1.10
2022-07-29T00:34:41.775Z,1.30
2022-07-29T00:35:41.767Z,1.20
2022-07-29T00:36:41.753Z,1.20
2022-07-29T00:37:41.761Z,1.10
2022-07-29T00:38:41.734Z,1.00
2022-07-29T00:39:41.749Z,1.40
2022-07-29T00:40:44.087Z,1.30
2022-07-29T00:41:41.711Z,1.20
2022-07-29T00:42:41.708Z,1.10
2022-07-29T00:43:41.688Z,1.10
2022-07-29T00:44:41.675Z,1.10
2022-07-29T00:45:41.663Z,1.50
2022-07-29T00:46:41.708Z,1.30
2022-07-29T00:47:41.665Z,0.80
2022-07-29T00:48:41.663Z,1.40
2022-07-29T00:49:41.634Z,1.20
2022-07-29T00:50:41.617Z,1.20
2022-07-29T00:51:41.612Z,1.30
2022-07-29T00:52:41.606Z,1.10
2022-07-29T00:53:41.588Z,1.30
2022-07-29T00:54:44.031Z,1.20
2022-07-29T00:55:41.565Z,1.00
2022-07-29T00:56:41.553Z,1.10
2022-07-29T00:57:41.559Z,1.10
2022-07-29T00:58:41.541Z,1.20
2022-07-29T00:59:41.536Z,1.20
2022-07-29T01:00:41.626Z,1.30
2022-07-29T01:01:41.563Z,1.20
2022-07-29T01:02:41.504Z,1.00
2022-07-29T01:03:41.494Z,1.20
2022-07-29T01:04:41.475Z,1.40
2022-07-29T01:05:49.622Z,1.30
2022-07-29T01:06:41.462Z,1.20
2022-07-29T01:07:41.466Z,1.50
2022-07-29T01:08:41.431Z,1.20
2022-07-29T01:09:45.500Z,1.20
2022-07-29T01:10:41.420Z,1.20
2022-07-29T01:11:41.408Z,1.20
2022-07-29T01:12:41.403Z,1.30
2022-07-29T01:13:41.388Z,1.30
2022-07-29T01:14:41.375Z,1.30
2022-07-29T01:15:41.367Z,1.10
2022-07-29T01:16:41.427Z,0.90
2022-07-29T01:17:41.355Z,1.40
2022-07-29T01:18:41.338Z,1.40
2022-07-29T01:19:41.327Z,1.10
2022-07-29T01:20:41.313Z,1.30
2022-07-29T01:21:41.307Z,1.00
2022-07-29T01:22:41.306Z,1.40
2022-07-29T01:23:41.289Z,1.30
2022-07-29T01:24:41.275Z,1.30
2022-07-29T01:25:41.271Z,1.30
2022-07-29T01:26:41.255Z,1.20
2022-07-29T01:27:41.277Z,1.50
2022-07-29T01:28:41.230Z,1.00
2022-07-29T01:29:41.226Z,1.50
2022-07-29T01:30:41.215Z,1.30
2022-07-29T01:31:58.584Z,1.50
2022-07-29T01:32:41.213Z,1.30
2022-07-29T01:33:41.186Z,1.30
2022-07-29T01:34:41.184Z,1.60
2022-07-29T01:35:41.166Z,1.70
2022-07-29T01:36:41.163Z,1.20
2022-07-29T01:37:41.158Z,1.20
2022-07-29T01:38:41.143Z,1.60
2022-07-29T01:39:41.126Z,1.30
2022-07-29T01:40:41.116Z,1.20
2022-07-29T01:41:41.107Z,1.20
2022-07-29T01:42:41.104Z,1.00
2022-07-29T01:43:41.087Z,1.40
2022-07-29T01:44:41.069Z,1.20
2022-07-29T01:45:41.065Z,1.20
2022-07-29T01:46:41.132Z,1.40
2022-07-29T01:47:41.061Z,0.90
2022-07-29T01:48:41.097Z,1.00
2022-07-29T01:49:41.027Z,1.40
2022-07-29T01:50:41.013Z,1.00
2022-07-29T01:51:41.018Z,2.20
2022-07-29T01:52:41.004Z,1.00
2022-07-29T01:53:40.993Z,1.50
2022-07-29T01:54:40.974Z,1.20
2022-07-29T01:55:40.968Z,1.50
2022-07-29T01:56:40.957Z,1.20
2022-07-29T01:57:40.956Z,1.10
2022-07-29T01:58:40.929Z,1.20
2022-07-29T01:59:40.936Z,1.40
2022-07-29T02:00:40.910Z,1.20
2022-07-29T02:01:40.984Z,1.60
2022-07-29T02:02:40.906Z,1.30
2022-07-29T02:03:40.888Z,1.20
2022-07-29T02:04:40.937Z,1.20
2022-07-29T02:05:40.866Z,1.30
2022-07-29T02:06:40.856Z,1.10
2022-07-29T02:07:40.858Z,1.30
2022-07-29T02:08:40.842Z,1.20
2022-07-29T02:09:40.841Z,1.30
2022-07-29T02:10:40.811Z,1.30
2022-07-29T02:11:40.807Z,1.20
2022-07-29T02:12:40.807Z,1.00
2022-07-29T02:13:40.786Z,1.40
2022-07-29T02:14:40.787Z,1.10
2022-07-29T02:15:40.819Z,1.20
2022-07-29T02:16:40.761Z,1.00
2022-07-29T02:17:40.930Z,1.30
2022-07-29T02:18:40.746Z,1.20
2022-07-29T02:19:40.726Z,1.10
2022-07-29T02:20:40.713Z,1.30
2022-07-29T02:21:40.704Z,1.60
2022-07-29T02:22:40.693Z,1.40
2022-07-29T02:23:50.063Z,1.20
2022-07-29T02:24:40.676Z,1.40
2022-07-29T02:25:40.669Z,2.00
2022-07-29T02:26:40.652Z,1.30
2022-07-29T02:27:40.644Z,1.30
2022-07-29T02:28:40.652Z,1.40
2022-07-29T02:29:40.625Z,1.30
2022-07-29T02:30:40.611Z,1.50
2022-07-29T02:31:40.676Z,1.00
2022-07-29T02:32:40.603Z,1.10
2022-07-29T02:33:40.599Z,1.40
2022-07-29T02:34:40.574Z,1.30
2022-07-29T02:35:40.569Z,1.10
2022-07-29T02:36:40.550Z,1.50
2022-07-29T02:37:40.545Z,1.40
2022-07-29T02:38:40.546Z,1.30
2022-07-29T02:39:40.525Z,1.20
2022-07-29T02:40:40.515Z,1.10
2022-07-29T02:41:40.517Z,1.30
2022-07-29T02:42:40.511Z,1.50
2022-07-29T02:43:40.495Z,1.00
2022-07-29T02:44:40.471Z,1.10
2022-07-29T02:45:40.464Z,1.30
2022-07-29T02:46:40.506Z,1.60
2022-07-29T02:47:41.626Z,1.10
2022-07-29T02:48:40.492Z,1.50
2022-07-29T02:49:40.425Z,1.30
2022-07-29T02:50:40.410Z,1.60
2022-07-29T02:51:43.468Z,1.50
2022-07-29T02:52:40.396Z,1.20
2022-07-29T02:53:40.398Z,1.40
2022-07-29T02:54:40.372Z,1.40
2022-07-29T02:55:40.366Z,1.60
2022-07-29T02:56:40.354Z,1.60
2022-07-29T02:57:54.717Z,1.30
2022-07-29T02:58:40.350Z,1.00
2022-07-29T02:59:40.326Z,1.20
2022-07-29T03:00:40.312Z,1.00
2022-07-29T03:01:40.367Z,1.30
2022-07-29T03:02:40.296Z,1.10
2022-07-29T03:03:40.300Z,1.10
2022-07-29T03:04:40.307Z,1.30
2022-07-29T03:05:40.260Z,1.60
2022-07-29T03:06:40.254Z,1.60
2022-07-29T03:07:40.238Z,1.50
2022-07-29T03:08:40.249Z,1.30
2022-07-29T03:09:40.221Z,1.10
2022-07-29T03:10:40.218Z,1.20
2022-07-29T03:11:49.356Z,1.40
2022-07-29T03:12:40.202Z,1.40
2022-07-29T03:13:40.192Z,1.40
2022-07-29T03:14:40.177Z,1.40
2022-07-29T03:15:40.187Z,1.30
2022-07-29T03:16:41.366Z,1.80
2022-07-29T03:17:40.141Z,1.40
2022-07-29T03:18:40.145Z,1.20
2022-07-29T03:19:40.121Z,1.40
2022-07-29T03:20:40.121Z,1.50
2022-07-29T03:21:40.100Z,1.70
2022-07-29T03:22:40.096Z,1.30
2022-07-29T03:23:40.165Z,1.30
2022-07-29T03:24:40.075Z,1.50
2022-07-29T03:25:40.063Z,1.40
2022-07-29T03:26:40.055Z,1.40
2022-07-29T03:27:40.043Z,1.70
2022-07-29T03:28:40.056Z,1.20
2022-07-29T03:29:40.026Z,1.50
2022-07-29T03:30:40.018Z,1.30
2022-07-29T03:31:40.040Z,1.40
2022-07-29T03:32:39.991Z,1.00
2022-07-29T03:33:39.997Z,1.30
2022-07-29T03:34:39.975Z,1.20
2022-07-29T03:35:39.960Z,1.40
2022-07-29T03:36:39.955Z,1.20
2022-07-29T03:37:39.938Z,1.40
2022-07-29T03:38:39.990Z,1.40
2022-07-29T03:39:45.918Z,1.30
2022-07-29T03:40:39.915Z,1.30
2022-07-29T03:41:39.902Z,1.50
2022-07-29T03:42:39.892Z,1.20
2022-07-29T03:43:39.891Z,1.60
2022-07-29T03:44:39.882Z,1.10
2022-07-29T03:45:39.859Z,1.40
2022-07-29T03:46:39.972Z,1.20
2022-07-29T03:47:50.121Z,1.60
2022-07-29T03:48:39.881Z,1.20
2022-07-29T03:49:39.823Z,1.60
2022-07-29T03:50:39.841Z,1.50
2022-07-29T03:51:39.802Z,1.20
2022-07-29T03:52:39.793Z,1.30
2022-07-29T03:53:39.790Z,1.30
2022-07-29T03:54:39.780Z,1.60
2022-07-29T03:55:39.760Z,1.30
2022-07-29T03:56:39.777Z,1.50
2022-07-29T03:57:39.753Z,1.10
2022-07-29T03:58:39.748Z,1.30
2022-07-29T03:59:39.716Z,1.60
2022-07-29T04:00:39.717Z,1.40
2022-07-29T04:01:39.785Z,1.30
2022-07-29T04:02:39.696Z,1.40
2022-07-29T04:03:39.728Z,1.50
2022-07-29T04:04:39.690Z,1.20
2022-07-29T04:05:39.663Z,1.80
2022-07-29T04:06:39.677Z,1.30
2022-07-29T04:07:39.646Z,1.20
2022-07-29T04:08:39.634Z,1.20
2022-07-29T04:09:39.630Z,1.40
2022-07-29T04:10:39.643Z,1.20
2022-07-29T04:11:59.781Z,1.50
2022-07-29T04:12:39.600Z,1.40
2022-07-29T04:13:39.582Z,1.30
2022-07-29T04:14:39.586Z,1.40
2022-07-29T04:15:39.609Z,1.50
2022-07-29T04:16:39.558Z,1.10
2022-07-29T04:17:39.539Z,1.40
2022-07-29T04:18:39.535Z,1.10
2022-07-29T04:19:39.545Z,1.60
2022-07-29T04:20:39.521Z,1.30
2022-07-29T04:21:39.503Z,1.30
2022-07-29T04:22:39.521Z,1.20
2022-07-29T04:23:47.596Z,1.40
2022-07-29T04:24:42.870Z,1.50
2022-07-29T04:25:39.462Z,1.20
2022-07-29T04:26:39.458Z,1.10
2022-07-29T04:27:39.440Z,1.30
2022-07-29T04:28:39.434Z,1.20
2022-07-29T04:29:56.143Z,1.60
2022-07-29T04:30:39.422Z,1.20
2022-07-29T04:31:39.472Z,1.40
2022-07-29T04:32:39.395Z,1.30
2022-07-29T04:33:39.381Z,1.20
2022-07-29T04:34:39.388Z,1.30
2022-07-29T04:35:49.974Z,1.70
2022-07-29T04:36:39.380Z,1.20
2022-07-29T04:37:39.339Z,1.20
2022-07-29T04:38:39.335Z,1.40
2022-07-29T04:39:39.357Z,1.40
2022-07-29T04:40:39.316Z,1.50
2022-07-29T04:41:39.304Z,1.60
2022-07-29T04:42:45.042Z,1.40
2022-07-29T04:43:39.285Z,2.00
2022-07-29T04:44:39.642Z,1.30
2022-07-29T04:45:39.259Z,1.50
2022-07-29T04:46:39.296Z,1.60
2022-07-29T04:47:39.240Z,1.20
2022-07-29T04:48:39.275Z,1.40
2022-07-29T04:49:39.237Z,1.70
2022-07-29T04:50:39.216Z,1.30
2022-07-29T04:51:39.219Z,1.90
2022-07-29T04:52:39.196Z,1.50
2022-07-29T04:53:39.181Z,1.60
2022-07-29T04:54:39.197Z,1.60
2022-07-29T04:55:39.267Z,1.40
2022-07-29T04:56:39.166Z,1.50
2022-07-29T04:57:39.141Z,1.50
2022-07-29T04:58:39.135Z,1.40
2022-07-29T04:59:39.140Z,1.20
2022-07-29T05:00:39.129Z,1.80
2022-07-29T05:01:39.185Z,1.40
2022-07-29T05:02:39.163Z,1.30
2022-07-29T05:03:39.080Z,2.00
2022-07-29T05:04:39.079Z,1.40
2022-07-29T05:05:39.075Z,1.70
2022-07-29T05:06:39.055Z,1.50
2022-07-29T05:07:39.049Z,1.40
2022-07-29T05:08:39.036Z,1.30
2022-07-29T05:09:39.029Z,1.40
2022-07-29T05:10:39.030Z,1.40
2022-07-29T05:11:39.005Z,1.50
2022-07-29T05:12:38.994Z,1.40
2022-07-29T05:13:45.948Z,1.60
2022-07-29T05:14:38.982Z,1.40
2022-07-29T05:15:39.034Z,1.30
2022-07-29T05:16:38.980Z,1.60
2022-07-29T05:17:38.942Z,1.90
2022-07-29T05:18:38.935Z,1.50
2022-07-29T05:19:39.407Z,1.90
2022-07-29T05:20:38.929Z,1.80
2022-07-29T05:21:38.901Z,1.60
2022-07-29T05:22:38.909Z,1.40
2022-07-29T05:23:38.880Z,1.60
2022-07-29T05:24:38.875Z,1.70
2022-07-29T05:25:40.779Z,1.50
2022-07-29T05:26:38.863Z,1.90
2022-07-29T05:27:38.841Z,1.70
2022-07-29T05:28:38.857Z,1.70
2022-07-29T05:29:44.343Z,1.90
2022-07-29T05:30:38.907Z,2.00
2022-07-29T05:31:38.800Z,1.30
2022-07-29T05:32:38.795Z,1.50
2022-07-29T05:33:38.784Z,2.00
2022-07-29T05:34:38.777Z,1.80
2022-07-29T05:35:38.781Z,1.70
2022-07-29T05:36:38.755Z,1.70
2022-07-29T05:37:38.737Z,1.50
2022-07-29T05:38:38.736Z,1.50
2022-07-29T05:39:49.108Z,1.80
2022-07-29T05:40:38.737Z,1.40
2022-07-29T05:41:38.702Z,1.50
2022-07-29T05:42:38.694Z,1.40
2022-07-29T05:43:38.683Z,1.60
2022-07-29T05:44:38.674Z,1.50
2022-07-29T05:45:49.936Z,1.30
2022-07-29T05:46:38.696Z,1.90
2022-07-29T05:47:38.650Z,1.80
2022-07-29T05:48:38.683Z,1.40
2022-07-29T05:49:38.622Z,1.90
2022-07-29T05:50:38.634Z,1.70
2022-07-29T05:51:38.617Z,1.40
2022-07-29T05:52:38.596Z,1.70
2022-07-29T05:53:38.584Z,1.70
2022-07-29T05:54:38.573Z,1.70
2022-07-29T05:55:38.816Z,1.90
2022-07-29T05:56:38.567Z,1.70
2022-07-29T05:57:38.575Z,1.90
2022-07-29T05:58:38.535Z,2.10
2022-07-29T05:59:38.533Z,1.60
2022-07-29T06:00:38.516Z,1.60
2022-07-29T06:01:38.573Z,1.60
2022-07-29T06:02:38.517Z,1.40
2022-07-29T06:03:38.480Z,1.80
2022-07-29T06:04:38.495Z,2.00
2022-07-29T06:05:38.460Z,1.70
2022-07-29T06:06:38.477Z,1.80
2022-07-29T06:07:38.439Z,1.70
2022-07-29T06:08:38.443Z,2.00
2022-07-29T06:09:38.418Z,1.50
2022-07-29T06:10:38.413Z,1.70
2022-07-29T06:11:38.415Z,1.50
2022-07-29T06:12:38.396Z,1.50
2022-07-29T06:13:38.378Z,1.50
2022-07-29T06:14:38.375Z,2.00
2022-07-29T06:15:38.392Z,1.60
2022-07-29T06:16:38.528Z,1.90
2022-07-29T06:17:38.339Z,2.00
2022-07-29T06:18:38.341Z,1.80
2022-07-29T06:19:38.320Z,1.80
2022-07-29T06:20:38.314Z,1.90
2022-07-29T06:21:38.710Z,1.60
2022-07-29T06:22:38.296Z,1.80
2022-07-29T06:23:38.279Z,1.70
2022-07-29T06:24:38.276Z,1.80
2022-07-29T06:25:38.280Z,1.70
2022-07-29T06:26:40.013Z,2.30
2022-07-29T06:27:38.238Z,2.10
2022-07-29T06:28:38.233Z,1.80
2022-07-29T06:29:38.222Z,1.80
2022-07-29T06:30:38.292Z,1.90
2022-07-29T06:31:38.225Z,1.80
2022-07-29T06:32:42.942Z,2.10
2022-07-29T06:33:38.187Z,1.70
2022-07-29T06:34:38.174Z,1.60
2022-07-29T06:35:41.783Z,2.10
2022-07-29T06:36:38.164Z,1.80
2022-07-29T06:37:38.140Z,1.70
2022-07-29T06:38:42.057Z,2.30
2022-07-29T06:39:38.125Z,1.80
2022-07-29T06:40:38.114Z,1.60
2022-07-29T06:41:38.164Z,1.80
2022-07-29T06:42:38.094Z,1.90
2022-07-29T06:43:51.918Z,1.70
2022-07-29T06:44:38.082Z,1.50
2022-07-29T06:45:38.057Z,1.80
2022-07-29T06:46:38.093Z,2.20
2022-07-29T06:47:38.039Z,1.70
2022-07-29T06:48:38.095Z,1.80
2022-07-29T06:49:38.025Z,2.00
2022-07-29T06:50:38.041Z,2.20
2022-07-29T06:51:38.015Z,2.30
2022-07-29T06:52:37.996Z,1.70
2022-07-29T06:53:37.985Z,1.90
2022-07-29T06:54:37.988Z,2.10
2022-07-29T06:55:37.974Z,1.50
2022-07-29T06:56:38.953Z,1.60
2022-07-29T06:57:37.940Z,1.50
2022-07-29T06:58:37.942Z,1.70
2022-07-29T06:59:37.920Z,1.50
2022-07-29T07:00:37.934Z,1.50
2022-07-29T07:01:38.070Z,1.50
2022-07-29T07:02:37.956Z,1.40
2022-07-29T07:03:37.884Z,1.70
2022-07-29T07:04:37.874Z,1.60
2022-07-29T07:05:37.859Z,1.50
2022-07-29T07:06:37.934Z,2.00
2022-07-29T07:07:37.840Z,2.00
2022-07-29T07:08:37.833Z,1.80
2022-07-29T07:09:39.994Z,1.70
2022-07-29T07:10:37.833Z,1.60
2022-07-29T07:11:37.816Z,1.50
2022-07-29T07:12:37.810Z,2.00
2022-07-29T07:13:37.784Z,1.50
2022-07-29T07:14:37.776Z,1.40
2022-07-29T07:15:38.833Z,1.70
2022-07-29T07:16:38.009Z,1.50
2022-07-29T07:17:37.736Z,1.50
2022-07-29T07:18:37.731Z,1.90
2022-07-29T07:19:37.726Z,1.70
2022-07-29T07:20:37.715Z,1.70
2022-07-29T07:21:37.744Z,1.70
2022-07-29T07:22:39.007Z,1.90
2022-07-29T07:23:37.684Z,1.60
2022-07-29T07:24:37.671Z,1.60
2022-07-29T07:25:37.668Z,2.30
2022-07-29T07:26:37.660Z,1.50
2022-07-29T07:27:37.650Z,2.10
2022-07-29T07:28:37.628Z,1.70
2022-07-29T07:29:37.624Z,1.80
2022-07-29T07:30:37.609Z,2.20
2022-07-29T07:31:37.637Z,2.20
2022-07-29T07:32:37.589Z,1.60
2022-07-29T07:33:37.604Z,1.70
2022-07-29T07:34:37.578Z,1.60
2022-07-29T07:35:37.565Z,2.10
2022-07-29T07:36:37.562Z,1.50
2022-07-29T07:37:37.543Z,1.60
2022-07-29T07:38:37.529Z,1.50
2022-07-29T07:39:37.528Z,2.00
2022-07-29T07:40:37.511Z,1.70
2022-07-29T07:41:37.524Z,1.60
2022-07-29T07:42:37.494Z,2.40
2022-07-29T07:43:37.481Z,2.10
2022-07-29T07:44:57.285Z,1.60
2022-07-29T07:45:37.526Z,1.80
2022-07-29T07:46:37.452Z,2.00
2022-07-29T07:47:37.460Z,2.20
2022-07-29T07:48:37.504Z,1.90
2022-07-29T07:49:37.427Z,2.10
2022-07-29T07:50:37.431Z,1.60
2022-07-29T07:51:37.419Z,1.70
2022-07-29T07:52:37.393Z,1.50
2022-07-29T07:53:37.383Z,1.50
2022-07-29T07:54:37.371Z,1.80
2022-07-29T07:56:00.467Z,1.40
2022-07-29T07:56:37.369Z,1.70
2022-07-29T07:57:37.344Z,1.20
2022-07-29T07:58:37.333Z,1.60
2022-07-29T07:59:37.327Z,1.70
2022-07-29T08:00:37.313Z,1.90
2022-07-29T08:01:47.912Z,1.30
2022-07-29T08:02:37.342Z,1.50
2022-07-29T08:03:37.282Z,1.50
2022-07-29T08:04:37.271Z,1.40
2022-07-29T08:05:37.263Z,1.30
2022-07-29T08:06:37.263Z,1.50
2022-07-29T08:07:37.243Z,1.40
2022-07-29T08:08:37.233Z,1.70
2022-07-29T08:09:37.224Z,1.70
2022-07-29T08:10:37.210Z,1.60
2022-07-29T08:11:37.757Z,1.50
2022-07-29T08:12:37.189Z,1.80
2022-07-29T08:13:37.201Z,1.50
2022-07-29T08:14:37.169Z,1.50
2022-07-29T08:15:37.163Z,1.50
2022-07-29T08:16:37.187Z,1.60
2022-07-29T08:17:37.163Z,1.50
2022-07-29T08:18:37.147Z,1.50
2022-07-29T08:19:37.138Z,1.70
2022-07-29T08:20:37.115Z,1.50
2022-07-29T08:21:37.104Z,1.70
2022-07-29T08:22:37.105Z,1.90
2022-07-29T08:23:45.463Z,1.70
2022-07-29T08:24:37.075Z,1.50
2022-07-29T08:25:40.088Z,2.00
2022-07-29T08:26:37.057Z,2.30
2022-07-29T08:27:44.550Z,2.30
2022-07-29T08:28:37.037Z,2.60
2022-07-29T08:29:37.030Z,2.30
2022-07-29T08:30:37.011Z,2.30
2022-07-29T08:31:37.090Z,2.50
2022-07-29T08:32:53.243Z,2.10
2022-07-29T08:33:36.994Z,2.20
2022-07-29T08:34:36.973Z,1.90
2022-07-29T08:35:36.979Z,2.30
2022-07-29T08:36:36.992Z,2.40
2022-07-29T08:37:36.962Z,2.10
2022-07-29T08:38:36.933Z,2.20
2022-07-29T08:39:36.929Z,2.20
2022-07-29T08:40:36.913Z,2.00
2022-07-29T08:41:36.910Z,1.80
2022-07-29T08:42:36.908Z,2.00
2022-07-29T08:43:36.887Z,1.90
2022-07-29T08:44:36.877Z,1.80
2022-07-29T08:45:36.945Z,1.90
2022-07-29T08:46:36.854Z,1.70
2022-07-29T08:47:36.870Z,1.40
2022-07-29T08:48:36.880Z,1.80
2022-07-29T08:49:36.829Z,1.60
2022-07-29T08:50:36.919Z,1.50
2022-07-29T08:51:36.809Z,1.70
2022-07-29T08:52:36.832Z,1.90
2022-07-29T08:53:36.809Z,1.70
2022-07-29T08:54:36.788Z,1.50
2022-07-29T08:55:36.784Z,2.10
2022-07-29T08:56:36.755Z,1.70
2022-07-29T08:57:37.233Z,1.70
2022-07-29T08:58:38.411Z,1.70
2022-07-29T08:59:36.741Z,1.60
2022-07-29T09:00:36.726Z,1.50
2022-07-29T09:01:42.943Z,1.80
2022-07-29T09:02:36.718Z,1.80
2022-07-29T09:03:36.762Z,1.70
2022-07-29T09:04:36.676Z,1.80
2022-07-29T09:05:40.607Z,1.60
2022-07-29T09:06:36.663Z,1.70
2022-07-29T09:07:36.669Z,1.30
2022-07-29T09:08:36.642Z,1.60
2022-07-29T09:09:36.632Z,1.80
2022-07-29T09:10:36.618Z,1.80
2022-07-29T09:11:36.612Z,1.50
2022-07-29T09:12:38.174Z,1.80
2022-07-29T09:13:36.951Z,1.50
2022-07-29T09:14:36.581Z,1.50
2022-07-29T09:15:36.596Z,1.70
2022-07-29T09:16:52.147Z,1.60
2022-07-29T09:17:36.617Z,1.70
2022-07-29T09:18:36.540Z,1.50
2022-07-29T09:19:36.535Z,1.50
2022-07-29T09:20:36.518Z,1.50
2022-07-29T09:21:36.518Z,1.70
2022-07-29T09:22:41.495Z,1.50
2022-07-29T09:23:36.517Z,1.40
2022-07-29T09:24:36.482Z,1.50
2022-07-29T09:25:36.478Z,1.60
2022-07-29T09:26:36.462Z,1.60
2022-07-29T09:27:36.455Z,1.60
2022-07-29T09:28:36.454Z,1.50
2022-07-29T09:29:36.545Z,1.90
2022-07-29T09:30:36.422Z,1.80
2022-07-29T09:31:36.496Z,1.50
2022-07-29T09:32:36.427Z,1.50
2022-07-29T09:33:36.406Z,1.60
2022-07-29T09:34:36.386Z,1.70
2022-07-29T09:35:36.374Z,1.40
2022-07-29T09:36:36.365Z,1.70
2022-07-29T09:37:36.373Z,1.70
2022-07-29T09:38:36.342Z,1.70
2022-07-29T09:39:36.430Z,1.50
2022-07-29T09:40:36.323Z,1.80
2022-07-29T09:41:36.324Z,1.80
2022-07-29T09:42:42.319Z,1.60
2022-07-29T09:43:36.296Z,1.60
2022-07-29T09:44:36.283Z,1.40
2022-07-29T09:45:36.275Z,1.30
2022-07-29T09:46:36.321Z,1.50
2022-07-29T09:47:36.256Z,1.60
2022-07-29T09:48:36.256Z,1.70
2022-07-29T09:49:36.241Z,1.30
2022-07-29T09:50:36.221Z,1.30
2022-07-29T09:51:37.879Z,1.30
2022-07-29T09:52:36.201Z,1.20
2022-07-29T09:53:36.212Z,1.50
2022-07-29T09:54:36.180Z,1.40
2022-07-29T09:55:36.197Z,1.30
2022-07-29T09:56:36.163Z,1.30
2022-07-29T09:57:36.156Z,1.60
2022-07-29T09:58:36.157Z,1.70
2022-07-29T09:59:36.137Z,1.80
2022-07-29T10:00:36.162Z,1.50
2022-07-29T10:01:36.116Z,1.50
2022-07-29T10:02:36.105Z,1.60
2022-07-29T10:03:36.191Z,1.50
2022-07-29T10:04:36.083Z,1.40
2022-07-29T10:05:37.098Z,1.50
2022-07-29T10:06:36.064Z,1.30
2022-07-29T10:07:36.056Z,1.90
2022-07-29T10:08:36.058Z,1.50
2022-07-29T10:09:36.036Z,1.70
2022-07-29T10:10:36.018Z,1.60
2022-07-29T10:11:49.158Z,1.50
2022-07-29T10:12:36.007Z,1.60
2022-07-29T10:13:36.009Z,1.70
2022-07-29T10:14:35.987Z,1.50
2022-07-29T10:15:35.978Z,1.70
2022-07-29T10:16:36.028Z,1.40
2022-07-29T10:17:35.961Z,1.50
2022-07-29T10:18:35.962Z,1.30
2022-07-29T10:19:35.944Z,1.40
2022-07-29T10:20:35.923Z,1.40
2022-07-29T10:21:36.718Z,1.40
2022-07-29T10:22:52.343Z,1.50
2022-07-29T10:23:46.801Z,1.30
2022-07-29T10:24:35.888Z,1.70
2022-07-29T10:25:35.878Z,1.70
2022-07-29T10:26:35.862Z,1.60
2022-07-29T10:27:35.859Z,1.60
2022-07-29T10:28:35.972Z,2.10
2022-07-29T10:29:35.847Z,1.70
2022-07-29T10:30:35.843Z,1.50
2022-07-29T10:31:35.893Z,1.20
2022-07-29T10:32:35.803Z,1.50
2022-07-29T10:33:35.818Z,1.30
2022-07-29T10:34:35.781Z,1.60
2022-07-29T10:35:35.777Z,1.50
2022-07-29T10:36:35.766Z,1.50
2022-07-29T10:37:36.219Z,1.60
2022-07-29T10:38:35.759Z,1.50
2022-07-29T10:39:44.765Z,1.40
2022-07-29T10:40:35.923Z,2.10
2022-07-29T10:41:36.327Z,1.80
2022-07-29T10:42:35.710Z,1.70
2022-07-29T10:43:35.711Z,1.50
2022-07-29T10:44:35.689Z,2.00
2022-07-29T10:45:35.696Z,1.80
2022-07-29T10:46:35.750Z,1.80
2022-07-29T10:47:35.767Z,1.30
2022-07-29T10:48:35.653Z,1.50
2022-07-29T10:49:35.675Z,1.60
2022-07-29T10:50:35.624Z,1.40
2022-07-29T10:51:35.638Z,1.40
2022-07-29T10:52:35.605Z,1.50
2022-07-29T10:53:35.612Z,1.60
2022-07-29T10:54:35.583Z,1.50
2022-07-29T10:55:36.317Z,1.80
2022-07-29T10:56:35.562Z,1.50
2022-07-29T10:57:53.569Z,1.50
2022-07-29T10:58:35.618Z,1.60
2022-07-29T10:59:36.402Z,2.00
2022-07-29T11:00:35.525Z,1.40
2022-07-29T11:01:37.761Z,1.60
2022-07-29T11:02:41.870Z,1.50
2022-07-29T11:03:35.581Z,1.70
2022-07-29T11:04:35.483Z,1.80
2022-07-29T11:05:40.119Z,1.50
2022-07-29T11:06:35.470Z,1.30
2022-07-29T11:07:45.647Z,1.30
2022-07-29T11:08:35.464Z,1.50
2022-07-29T11:09:38.583Z,1.60
2022-07-29T11:10:35.422Z,1.70
2022-07-29T11:11:35.417Z,1.70
2022-07-29T11:12:35.406Z,1.40
2022-07-29T11:13:41.066Z,1.60
2022-07-29T11:14:35.386Z,1.30
2022-07-29T11:15:35.378Z,1.70
2022-07-29T11:16:35.360Z,1.90
2022-07-29T11:17:47.078Z,1.60
2022-07-29T12:07:11.046Z,1.70
2022-07-29T12:07:19.953Z,1.40
2022-07-29T12:08:19.233Z,2.10
2022-07-29T12:09:19.232Z,2.10
2022-07-29T12:10:19.953Z,2.10
2022-07-29T12:11:20.630Z,2.00
2022-07-29T12:12:19.195Z,2.50
2022-07-29T12:13:19.187Z,2.00
2022-07-29T12:14:19.186Z,2.00
2022-07-29T12:15:20.385Z,1.90
2022-07-29T12:16:25.990Z,1.80
2022-07-29T12:17:19.147Z,1.80
2022-07-29T12:18:19.138Z,2.30
2022-07-29T12:19:19.137Z,2.10
2022-07-29T12:20:20.479Z,2.00
2022-07-29T12:21:19.105Z,2.00
2022-07-29T12:22:19.107Z,1.90
2022-07-29T12:23:19.098Z,2.00
2022-07-29T12:24:19.091Z,2.00
2022-07-29T12:25:34.596Z,1.70
2022-07-29T12:26:25.505Z,2.10
2022-07-29T12:27:19.065Z,1.60
2022-07-29T12:28:19.045Z,2.30
2022-07-29T12:29:20.449Z,1.90
2022-07-29T12:30:19.025Z,2.50
2022-07-29T12:31:42.292Z,1.90
2022-07-29T12:32:19.746Z,2.60
2022-07-29T12:33:18.982Z,1.90
2022-07-29T12:34:18.979Z,2.10
2022-07-29T12:35:18.990Z,2.00
2022-07-29T12:36:18.959Z,2.00
2022-07-29T12:37:18.943Z,1.90
2022-07-29T12:38:18.936Z,2.50
2022-07-29T12:39:18.921Z,2.00
2022-07-29T12:40:18.925Z,1.70
2022-07-29T12:41:18.903Z,2.20
2022-07-29T12:42:19.028Z,2.40
2022-07-29T12:43:18.934Z,2.10
2022-07-29T12:44:18.881Z,2.20
2022-07-29T12:45:18.878Z,2.80
2022-07-29T12:46:18.976Z,2.30
2022-07-29T12:47:18.844Z,2.00
2022-07-29T12:48:18.835Z,2.30
2022-07-29T12:49:18.868Z,2.30
2022-07-29T12:50:22.116Z,2.20
2022-07-29T12:51:18.805Z,1.80
2022-07-29T12:52:18.798Z,2.50
2022-07-29T12:53:18.782Z,2.20
2022-07-29T12:54:18.779Z,1.90
2022-07-29T12:55:18.780Z,2.90
2022-07-29T12:56:42.574Z,2.30
2022-07-29T12:57:19.918Z,2.50
2022-07-29T12:58:18.735Z,2.10
2022-07-29T12:59:18.786Z,1.90
2022-07-29T13:00:18.733Z,2.40
2022-07-29T13:01:18.765Z,2.30
2022-07-29T13:02:18.774Z,1.80
2022-07-29T13:03:18.684Z,2.10
2022-07-29T13:04:18.677Z,2.10
2022-07-29T13:05:18.686Z,2.00
2022-07-29T13:06:18.679Z,2.10
2022-07-29T13:07:18.646Z,1.80
2022-07-29T13:08:20.127Z,1.90
2022-07-29T13:09:18.621Z,2.30
2022-07-29T13:10:18.628Z,1.80
2022-07-29T13:11:18.604Z,2.10
2022-07-29T13:12:18.596Z,2.00
2022-07-29T13:13:18.604Z,1.90
2022-07-29T13:14:18.576Z,2.60
2022-07-29T13:15:18.573Z,2.10
2022-07-29T13:16:18.597Z,1.90
2022-07-29T13:17:18.540Z,2.20
2022-07-29T13:18:19.485Z,1.80
2022-07-29T13:19:18.520Z,2.10
2022-07-29T13:20:18.537Z,1.90
2022-07-29T13:21:18.878Z,1.90
2022-07-29T13:22:18.502Z,1.80
2022-07-29T13:23:18.482Z,2.60
2022-07-29T13:24:19.964Z,2.00
2022-07-29T13:25:18.466Z,2.00
2022-07-29T13:26:18.479Z,2.10
2022-07-29T13:27:18.439Z,2.30
2022-07-29T13:28:18.435Z,2.30
2022-07-29T13:29:18.477Z,2.10
2022-07-29T13:30:18.418Z,2.20
2022-07-29T13:31:18.455Z,1.70
2022-07-29T13:32:18.397Z,2.10
2022-07-29T13:33:18.378Z,1.80
2022-07-29T13:34:18.379Z,2.20
2022-07-29T13:35:18.362Z,2.10
2022-07-29T13:36:18.372Z,2.50
2022-07-29T13:37:18.344Z,2.20
2022-07-29T13:38:18.335Z,2.20
2022-07-29T13:39:18.320Z,2.00
2022-07-29T13:40:18.316Z,2.40
2022-07-29T13:41:18.314Z,2.10
2022-07-29T13:42:18.295Z,2.00
2022-07-29T13:43:18.283Z,2.10
2022-07-29T13:44:18.275Z,1.90
2022-07-29T13:45:18.264Z,2.00
2022-07-29T13:46:18.298Z,2.20
2022-07-29T13:47:18.243Z,1.90
2022-07-29T13:48:18.241Z,2.10
2022-07-29T13:49:18.290Z,2.10
2022-07-29T13:50:18.221Z,2.10
2022-07-29T13:51:18.214Z,2.20
2022-07-29T13:52:18.197Z,1.80
2022-07-29T13:53:18.261Z,2.10
2022-07-29T13:54:18.177Z,2.10
2022-07-29T13:55:18.165Z,2.00
2022-07-29T13:56:18.170Z,2.30
2022-07-29T13:57:18.146Z,1.90
2022-07-29T13:58:18.138Z,2.00
2022-07-29T13:59:18.121Z,2.60
2022-07-29T14:00:18.134Z,1.70
2022-07-29T14:01:18.197Z,1.90
2022-07-29T14:02:18.097Z,2.10
2022-07-29T14:03:18.084Z,2.00
2022-07-29T14:04:18.167Z,2.10
2022-07-29T14:05:18.063Z,2.30
2022-07-29T14:06:18.235Z,2.00